createdAt,value
2023-04-04T00:00:47.947Z,4.57
2023-04-04T00:03:15.061Z,6.15
2023-04-04T00:05:42.582Z,4.97
2023-04-04T00:08:09.694Z,5.20
2023-04-04T00:10:36.746Z,7.13
2023-04-04T00:13:05.709Z,7.43
2023-04-04T00:15:34.764Z,6.13
2023-04-04T00:18:02.988Z,3.78
2023-04-04T00:20:31.237Z,5.75
2023-04-04T00:22:59.209Z,4.90
2023-04-04T00:25:26.314Z,5.13
2023-04-04T00:27:53.450Z,5.03
2023-04-04T00:30:20.547Z,4.22
2023-04-04T00:32:47.979Z,6.97
2023-04-04T00:35:15.150Z,9.32
2023-04-04T00:37:42.908Z,7.40
2023-04-04T00:40:10.213Z,6.60
2023-04-04T00:42:37.790Z,4.18
2023-04-04T00:45:07.771Z,5.43
2023-04-04T00:47:35.385Z,8.77
2023-04-04T00:50:02.440Z,5.47
2023-04-04T00:52:29.592Z,3.80
2023-04-04T00:54:57.299Z,5.68
2023-04-04T00:57:24.714Z,5.10
2023-04-04T00:59:52.230Z,5.60
2023-04-04T01:02:19.944Z,3.67
2023-04-04T01:04:47.442Z,4.82
2023-04-04T01:07:14.642Z,3.38
2023-04-04T01:09:42.217Z,7.00
2023-04-04T01:12:09.438Z,5.93
2023-04-04T01:14:36.715Z,6.45
2023-04-04T01:17:04.386Z,6.90
2023-04-04T01:19:36.413Z,6.72
2023-04-04T01:22:04.683Z,7.80
2023-04-04T01:24:34.345Z,6.30
2023-04-04T01:27:02.047Z,6.50
2023-04-04T01:29:29.226Z,5.47
2023-04-04T01:32:13.018Z,6.75
2023-04-04T01:35:02.320Z,7.95
2023-04-04T01:37:48.163Z,6.75
2023-04-04T01:40:21.750Z,9.25
2023-04-04T01:42:49.834Z,6.85
2023-04-04T01:45:17.038Z,8.05
2023-04-04T01:47:44.551Z,4.05
2023-04-04T01:50:12.080Z,7.22
2023-04-04T01:52:39.220Z,4.85
2023-04-04T01:55:06.715Z,6.55
2023-04-04T01:57:33.826Z,4.95
2023-04-04T02:00:01.331Z,4.60
2023-04-04T02:02:28.531Z,8.77
2023-04-04T02:04:55.761Z,7.07
2023-04-04T02:07:23.409Z,8.13
2023-04-04T02:09:50.507Z,5.82
2023-04-04T02:12:17.892Z,6.60
2023-04-04T02:14:45.404Z,7.80
2023-04-04T02:17:12.520Z,4.68
2023-04-04T02:19:39.583Z,6.93
2023-04-04T02:22:06.869Z,8.32
2023-04-04T02:24:34.023Z,4.28
2023-04-04T02:27:01.278Z,5.53
2023-04-04T02:29:28.495Z,6.20
2023-04-04T02:31:56.051Z,9.77
2023-04-04T02:34:23.041Z,9.13
2023-04-04T02:36:50.810Z,7.55
2023-04-04T02:39:17.936Z,6.82
2023-04-04T02:41:45.019Z,6.80
2023-04-04T02:44:12.439Z,8.50
2023-04-04T02:46:39.607Z,6.43
2023-04-04T02:49:06.709Z,9.10
2023-04-04T02:51:33.750Z,6.07
2023-04-04T02:54:03.137Z,6.88
2023-04-04T02:56:30.152Z,7.22
2023-04-04T02:58:57.224Z,6.55
2023-04-04T03:01:24.361Z,4.95
2023-04-04T03:03:51.589Z,4.97
2023-04-04T03:06:18.790Z,5.45
2023-04-04T03:08:45.962Z,8.07
2023-04-04T03:11:13.622Z,7.15
2023-04-04T03:13:40.932Z,8.07
2023-04-04T03:16:08.258Z,8.40
2023-04-04T03:18:35.483Z,9.23
2023-04-04T03:21:02.609Z,9.60
2023-04-04T03:23:29.733Z,10.20
2023-04-04T03:25:56.895Z,8.88
2023-04-04T03:28:24.062Z,10.68
2023-04-04T03:30:51.507Z,9.40
2023-04-04T03:33:19.580Z,10.23
2023-04-04T03:35:46.654Z,10.70
2023-04-04T03:38:14.161Z,10.32
2023-04-04T03:40:42.289Z,9.65
2023-04-04T03:43:09.684Z,13.27
2023-04-04T03:45:40.168Z,14.63
2023-04-04T03:48:07.499Z,12.57
2023-04-04T03:50:36.976Z,14.25
2023-04-04T03:53:04.025Z,9.63
2023-04-04T03:55:31.251Z,11.82
2023-04-04T03:57:59.086Z,11.95
2023-04-04T04:00:26.392Z,12.40
2023-04-04T04:02:53.753Z,19.55
2023-04-04T04:05:20.930Z,21.75
2023-04-04T04:07:47.972Z,18.30
2023-04-04T04:10:15.127Z,20.55
2023-04-04T04:12:42.328Z,24.35
2023-04-04T04:15:09.732Z,18.40
2023-04-04T04:17:42.913Z,16.67
2023-04-04T04:20:10.741Z,18.80
2023-04-04T04:22:38.280Z,20.30
2023-04-04T04:25:05.887Z,21.23
2023-04-04T04:27:32.984Z,14.98
2023-04-04T04:30:00.070Z,15.15
2023-04-04T04:32:27.503Z,14.10
2023-04-04T04:34:54.516Z,9.05
2023-04-04T04:37:21.795Z,12.13
2023-04-04T04:39:48.862Z,10.57
2023-04-04T04:42:15.984Z,10.82
2023-04-04T04:44:43.159Z,10.43
2023-04-04T04:47:10.282Z,7.82
2023-04-04T04:49:37.341Z,8.68
2023-04-04T04:52:05.081Z,11.68
2023-04-04T04:54:32.095Z,14.05
2023-04-04T04:57:00.760Z,10.55
2023-04-04T04:59:27.994Z,15.32
2023-04-04T05:01:55.100Z,14.43
2023-04-04T05:04:22.346Z,9.80
2023-04-04T05:06:49.487Z,11.50
2023-04-04T05:09:16.603Z,10.90
2023-04-04T05:11:43.882Z,13.05
2023-04-04T05:14:11.023Z,12.32
2023-04-04T05:16:38.519Z,15.20
2023-04-04T05:19:05.702Z,11.02
2023-04-04T05:21:32.804Z,10.98
2023-04-04T05:24:00.155Z,14.00
2023-04-04T05:26:27.340Z,15.75
2023-04-04T05:28:54.787Z,13.35
2023-04-04T05:31:21.884Z,12.75
2023-04-04T05:33:49.097Z,11.13
2023-04-04T05:36:16.351Z,14.93
2023-04-04T05:38:43.581Z,13.27
2023-04-04T05:41:10.922Z,11.55
2023-04-04T05:43:37.916Z,10.60
2023-04-04T05:46:05.294Z,14.15
2023-04-04T05:48:32.501Z,14.88
2023-04-04T05:50:59.568Z,15.02
2023-04-04T05:53:26.648Z,13.07
2023-04-04T05:55:54.005Z,15.77
2023-04-04T05:58:21.231Z,12.82
2023-04-04T06:00:48.346Z,9.73
2023-04-04T06:03:16.806Z,13.00
2023-04-04T06:05:45.173Z,10.43
2023-04-04T06:08:12.283Z,12.32
2023-04-04T06:10:39.688Z,13.00
2023-04-04T06:13:06.968Z,16.88
2023-04-04T06:15:34.111Z,14.30
2023-04-04T06:18:01.219Z,13.70
2023-04-04T06:20:28.292Z,13.52
2023-04-04T06:22:55.552Z,15.70
2023-04-04T06:25:22.749Z,14.93
2023-04-04T06:27:49.855Z,16.42
2023-04-04T06:30:18.365Z,14.60
2023-04-04T06:32:45.528Z,15.80
2023-04-04T06:35:12.615Z,13.23
2023-04-04T06:37:39.641Z,15.55
2023-04-04T06:40:07.697Z,17.58
2023-04-04T06:42:34.839Z,15.30
2023-04-04T06:45:01.919Z,13.85
2023-04-04T06:47:29.227Z,15.80
2023-04-04T06:49:56.678Z,13.68
2023-04-04T06:52:24.999Z,13.35
2023-04-04T06:54:52.765Z,11.27
2023-04-04T06:57:19.830Z,9.13
2023-04-04T06:59:46.949Z,7.28
2023-04-04T07:02:13.981Z,10.40
2023-04-04T07:04:42.105Z,7.95
2023-04-04T07:07:09.254Z,8.57
2023-04-04T07:09:36.509Z,11.15
2023-04-04T07:12:04.047Z,9.77
2023-04-04T07:14:31.349Z,9.32
2023-04-04T07:16:59.254Z,9.25
2023-04-04T07:19:29.203Z,8.43
2023-04-04T07:21:57.015Z,10.85
2023-04-04T07:24:24.699Z,9.73
2023-04-04T07:26:52.170Z,9.15
2023-04-04T07:29:19.440Z,10.32
2023-04-04T07:31:46.831Z,8.20
2023-04-04T07:34:14.173Z,7.90
2023-04-04T07:36:41.386Z,7.35
2023-04-04T07:39:08.471Z,8.88
2023-04-04T07:41:36.069Z,8.77
2023-04-04T07:44:03.261Z,8.70
2023-04-04T07:46:30.458Z,8.40
2023-04-04T07:48:57.869Z,9.05
2023-04-04T07:51:29.521Z,8.77
2023-04-04T07:53:57.346Z,10.32
2023-04-04T07:56:24.508Z,10.43
2023-04-04T07:58:51.658Z,6.70
2023-04-04T08:01:18.799Z,7.45
2023-04-04T08:03:46.338Z,8.18
2023-04-04T08:06:13.901Z,8.00
2023-04-04T08:08:41.411Z,8.77
2023-04-04T08:11:08.611Z,8.63
2023-04-04T08:13:35.658Z,8.57
2023-04-04T08:16:02.820Z,8.23
2023-04-04T08:18:29.877Z,8.25
2023-04-04T08:20:56.944Z,8.23
2023-04-04T08:23:24.078Z,9.57
2023-04-04T08:25:51.744Z,8.55
2023-04-04T08:28:18.848Z,8.07
2023-04-04T08:30:46.404Z,10.15
2023-04-04T08:33:13.473Z,8.32
2023-04-04T08:35:40.592Z,9.15
2023-04-04T08:38:08.607Z,6.18
2023-04-04T08:40:35.838Z,7.47
2023-04-04T08:43:05.735Z,10.45
2023-04-04T08:45:35.131Z,6.97
2023-04-04T08:48:05.217Z,6.60
2023-04-04T08:50:34.022Z,8.10
2023-04-04T08:53:04.817Z,7.00
2023-04-04T08:55:32.772Z,13.80
2023-04-04T08:57:59.888Z,8.40
2023-04-04T09:00:26.990Z,6.95
2023-04-04T09:03:18.676Z,8.52
2023-04-04T09:05:47.244Z,6.88
2023-04-04T09:08:15.155Z,8.85
2023-04-04T09:10:44.226Z,8.75
2023-04-04T09:13:16.004Z,9.90
2023-04-04T09:15:51.243Z,6.88
2023-04-04T09:18:19.257Z,9.30
2023-04-04T09:20:47.779Z,7.15
2023-04-04T09:23:17.405Z,10.52
2023-04-04T09:28:24.774Z,6.45
2023-04-04T09:30:52.744Z,6.50
2023-04-04T09:33:22.550Z,6.28
2023-04-04T09:35:58.782Z,8.45
2023-04-04T09:38:28.949Z,8.90
2023-04-04T09:40:57.116Z,6.55
2023-04-04T09:43:25.752Z,9.32
2023-04-04T09:45:55.045Z,8.85
2023-04-04T09:48:32.799Z,8.30
2023-04-04T09:51:00.838Z,4.45
2023-04-04T09:53:28.530Z,6.78
2023-04-04T09:55:57.665Z,8.07
2023-04-04T09:58:28.040Z,7.45
2023-04-04T10:00:57.578Z,7.55
2023-04-04T10:03:25.344Z,7.90
2023-04-04T10:05:58.141Z,5.85
2023-04-04T10:08:27.525Z,7.43
2023-04-04T10:13:36.998Z,5.68
2023-04-04T10:16:05.228Z,6.00
2023-04-04T10:18:37.750Z,9.15
2023-04-04T10:23:41.139Z,5.53
2023-04-04T10:26:08.820Z,6.30
2023-04-04T10:28:36.116Z,9.18
2023-04-04T10:31:25.589Z,6.90
2023-04-04T10:34:13.858Z,7.15
2023-04-04T10:36:46.593Z,7.10
2023-04-04T10:39:29.182Z,5.68
2023-04-04T10:41:57.589Z,7.87
2023-04-04T10:44:34.146Z,5.68
2023-04-04T10:47:26.658Z,8.35
2023-04-04T10:49:54.180Z,7.85
2023-04-04T10:52:25.011Z,8.55
2023-04-04T10:54:55.955Z,7.10
2023-04-04T10:57:23.935Z,5.95
2023-04-04T11:00:02.650Z,6.50
2023-04-04T11:02:53.280Z,6.28
2023-04-04T11:05:42.586Z,8.70
2023-04-04T11:08:14.095Z,7.90
2023-04-04T11:10:46.538Z,6.10
2023-04-04T11:13:23.914Z,7.75
2023-04-04T11:16:07.620Z,8.55
2023-04-04T11:18:41.735Z,6.15
2023-04-04T11:21:11.586Z,9.75
2023-04-04T11:23:48.235Z,7.18
2023-04-04T11:26:36.086Z,7.93
2023-04-04T11:29:14.430Z,6.47
2023-04-04T11:31:48.349Z,7.00
2023-04-04T11:34:29.645Z,5.57
2023-04-04T11:36:58.114Z,6.20
2023-04-04T11:39:30.871Z,4.72
2023-04-04T11:42:10.573Z,7.30
2023-04-04T11:44:43.240Z,6.65
2023-04-04T11:47:12.060Z,6.13
2023-04-04T11:49:43.229Z,10.32
2023-04-04T11:52:12.602Z,7.28
2023-04-04T11:54:41.088Z,9.20
2023-04-04T11:57:11.746Z,11.30
2023-04-04T11:59:45.667Z,8.10
2023-04-04T12:02:15.889Z,6.88
2023-04-04T12:04:46.119Z,6.93
2023-04-04T12:07:15.630Z,7.90
2023-04-04T12:09:42.852Z,8.07
2023-04-04T12:12:16.788Z,9.18
2023-04-04T12:14:45.170Z,8.43
2023-04-04T12:17:12.536Z,9.85
2023-04-04T12:19:41.465Z,8.05
2023-04-04T12:22:08.904Z,10.85
2023-04-04T12:24:39.250Z,9.15
2023-04-04T12:27:07.288Z,8.50
2023-04-04T12:29:37.788Z,6.32
2023-04-04T12:32:06.749Z,7.18
2023-04-04T12:34:36.490Z,6.85
2023-04-04T12:37:04.316Z,9.25
2023-04-04T12:39:32.178Z,9.40
2023-04-04T12:42:02.631Z,7.40
2023-04-04T12:44:35.082Z,6.30
2023-04-04T12:47:05.051Z,7.57
2023-04-04T12:49:40.043Z,6.63
2023-04-04T12:52:09.273Z,8.80
2023-04-04T12:54:40.272Z,6.82
2023-04-04T12:57:08.382Z,9.52
2023-04-04T12:59:36.959Z,7.20
2023-04-04T13:02:14.330Z,9.35
2023-04-04T13:04:45.117Z,8.48
2023-04-04T13:07:43.189Z,6.38
2023-04-04T13:10:14.839Z,7.78
2023-04-04T13:12:59.016Z,7.97
2023-04-04T13:15:51.894Z,10.00
2023-04-04T13:18:24.865Z,7.85
2023-04-04T13:20:53.803Z,10.93
2023-04-04T13:23:22.292Z,10.73
2023-04-04T13:25:49.673Z,7.38
2023-04-04T13:28:16.854Z,7.35
2023-04-04T13:30:49.033Z,9.32
2023-04-04T13:33:17.877Z,8.38
2023-04-04T13:35:46.650Z,12.57
2023-04-04T13:38:14.195Z,8.90
2023-04-04T13:40:41.349Z,8.98
2023-04-04T13:43:08.865Z,7.70
2023-04-04T13:45:36.251Z,6.60
2023-04-04T13:48:04.372Z,8.65
2023-04-04T13:50:33.086Z,6.85
2023-04-04T13:53:00.129Z,8.40
2023-04-04T13:55:28.045Z,10.98
2023-04-04T13:57:55.354Z,8.65
2023-04-04T14:00:23.071Z,7.45
2023-04-04T14:02:54.166Z,7.20
2023-04-04T14:05:22.865Z,10.32
2023-04-04T14:07:50.312Z,12.75
2023-04-04T14:10:17.709Z,7.50
2023-04-04T14:12:44.896Z,8.65
2023-04-04T14:15:12.494Z,9.18
2023-04-04T14:17:39.716Z,9.90
2023-04-04T14:20:08.088Z,8.02
2023-04-04T14:22:35.665Z,8.13
2023-04-04T14:25:03.016Z,8.05
2023-04-04T14:27:30.132Z,6.50
2023-04-04T14:29:57.305Z,6.78
2023-04-04T14:32:25.088Z,7.38
2023-04-04T14:34:52.259Z,8.38
2023-04-04T14:37:19.782Z,6.75
2023-04-04T14:39:46.898Z,6.90
2023-04-04T14:42:14.510Z,9.40
2023-04-04T14:44:42.451Z,8.25
2023-04-04T14:47:09.764Z,8.38
2023-04-04T14:49:36.861Z,8.43
2023-04-04T14:52:04.351Z,6.72
2023-04-04T14:54:31.619Z,6.88
2023-04-04T14:56:58.781Z,8.18
2023-04-04T14:59:26.020Z,8.05
2023-04-04T15:01:53.060Z,8.73
2023-04-04T15:04:20.258Z,8.57
2023-04-04T15:06:47.453Z,6.45
2023-04-04T15:09:16.476Z,7.32
2023-04-04T15:11:43.672Z,7.88
2023-04-04T15:14:10.901Z,10.75
2023-04-04T15:16:38.528Z,12.85
2023-04-04T15:19:05.796Z,7.15
2023-04-04T15:21:32.892Z,7.15
2023-04-04T15:24:00.144Z,9.77
2023-04-04T15:26:27.257Z,16.90
2023-04-04T15:28:54.338Z,8.20
2023-04-04T15:31:21.477Z,10.82
2023-04-04T15:33:48.837Z,8.70
2023-04-04T15:36:16.000Z,16.77
2023-04-04T15:38:43.174Z,10.07
2023-04-04T15:41:10.771Z,9.95
2023-04-04T15:43:38.211Z,12.05
2023-04-04T15:46:05.557Z,13.82
2023-04-04T15:48:34.575Z,8.77
2023-04-04T15:51:05.146Z,9.20
2023-04-04T15:53:32.600Z,11.93
2023-04-04T15:56:00.226Z,8.82
2023-04-04T15:58:27.258Z,9.35
2023-04-04T16:00:55.745Z,25.58
2023-04-04T16:03:24.776Z,13.30
2023-04-04T16:05:52.266Z,79.60
2023-04-04T16:08:19.418Z,44.40
2023-04-04T16:10:46.502Z,29.02
2023-04-04T16:13:14.087Z,35.70
2023-04-04T16:15:45.174Z,25.52
2023-04-04T16:18:12.392Z,26.92
2023-04-04T16:20:39.666Z,22.27
2023-04-04T16:23:06.950Z,14.10
2023-04-04T16:25:34.035Z,33.05
2023-04-04T16:28:01.362Z,12.90
2023-04-04T16:30:29.276Z,10.98
2023-04-04T16:32:56.645Z,12.73
2023-04-04T16:35:24.085Z,19.25
2023-04-04T16:37:51.462Z,14.98
2023-04-04T16:40:18.648Z,13.43
2023-04-04T16:42:46.225Z,12.18
2023-04-04T16:45:13.468Z,9.75
2023-04-04T16:47:40.711Z,14.95
2023-04-04T16:50:08.369Z,16.00
2023-04-04T16:52:35.425Z,12.10
2023-04-04T16:55:02.736Z,13.73
2023-04-04T16:57:29.884Z,15.68
2023-04-04T16:59:57.369Z,12.25
2023-04-04T17:02:24.368Z,10.50
2023-04-04T17:04:52.456Z,9.18
2023-04-04T17:07:22.695Z,16.92
2023-04-04T17:09:51.597Z,14.55
2023-04-04T17:12:20.320Z,8.68
2023-04-04T17:14:47.866Z,11.55
2023-04-04T17:17:15.847Z,11.05
2023-04-04T17:19:43.042Z,12.32
2023-04-04T17:22:10.336Z,9.57
2023-04-04T17:24:37.824Z,9.02
2023-04-04T17:27:04.831Z,10.45
2023-04-04T17:29:31.992Z,10.32
2023-04-04T17:31:59.990Z,11.13
2023-04-04T17:34:27.298Z,11.07
2023-04-04T17:36:54.545Z,10.73
2023-04-04T17:39:22.127Z,12.15
2023-04-04T17:41:49.675Z,9.50
2023-04-04T17:44:18.645Z,9.73
2023-04-04T17:46:46.419Z,10.32
2023-04-04T17:49:19.933Z,11.80
2023-04-04T17:51:49.265Z,14.68
2023-04-04T17:54:16.815Z,12.30
2023-04-04T17:56:46.297Z,12.40
2023-04-04T17:59:14.834Z,11.23
2023-04-04T18:01:42.355Z,12.07
2023-04-04T18:04:09.886Z,11.18
2023-04-04T18:06:40.134Z,13.40
2023-04-04T18:09:09.273Z,13.35
2023-04-04T18:11:37.114Z,11.93
2023-04-04T18:14:04.616Z,11.48
2023-04-04T18:16:39.064Z,11.52
2023-04-04T18:19:08.139Z,11.15
2023-04-04T18:21:35.298Z,13.10
2023-04-04T18:24:02.364Z,14.93
2023-04-04T18:26:29.605Z,15.07
2023-04-04T18:28:56.759Z,13.68
2023-04-04T18:31:23.946Z,13.05
2023-04-04T18:33:52.397Z,11.68
2023-04-04T18:36:19.443Z,14.75
2023-04-04T18:38:47.696Z,12.30
2023-04-04T18:41:17.551Z,12.30
2023-04-04T18:43:44.847Z,12.18
2023-04-04T18:46:12.381Z,15.13
2023-04-04T18:48:39.608Z,14.05
2023-04-04T18:51:08.025Z,15.45
2023-04-04T18:53:35.109Z,21.30
2023-04-04T18:56:02.151Z,15.35
2023-04-04T18:58:29.246Z,13.98
2023-04-04T19:00:58.613Z,19.00
2023-04-04T19:03:26.537Z,18.35
2023-04-04T19:05:55.801Z,14.25
2023-04-04T19:08:24.273Z,12.18
2023-04-04T19:10:51.559Z,11.70
2023-04-04T19:13:18.836Z,13.05
2023-04-04T19:15:47.108Z,21.20
2023-04-04T19:18:15.545Z,22.85
2023-04-04T19:20:43.754Z,25.23
2023-04-04T19:23:11.183Z,21.52
2023-04-04T19:25:38.821Z,19.80
2023-04-04T19:28:06.480Z,15.73
2023-04-04T19:30:39.560Z,17.00
2023-04-04T19:33:17.501Z,14.25
2023-04-04T19:35:48.722Z,13.65
2023-04-04T19:38:21.941Z,14.13
2023-04-04T19:43:21.688Z,24.95
2023-04-04T19:45:56.870Z,26.48
2023-04-04T19:48:45.124Z,25.10
2023-04-04T19:51:18.406Z,18.85
2023-04-04T19:56:15.007Z,21.38
2023-04-04T19:58:42.571Z,24.08
2023-04-04T20:01:11.392Z,23.77
2023-04-04T20:03:39.353Z,23.42
2023-04-04T20:06:22.629Z,28.17
2023-04-04T20:08:52.157Z,26.33
2023-04-04T20:11:30.316Z,24.60
2023-04-04T20:13:58.447Z,21.65
2023-04-04T20:16:26.616Z,23.73
2023-04-04T20:18:54.324Z,23.63
2023-04-04T20:21:23.356Z,20.63
2023-04-04T20:24:03.799Z,23.70
2023-04-04T20:26:55.083Z,17.23
2023-04-04T20:29:28.436Z,20.65
2023-04-04T20:32:04.113Z,15.70
2023-04-04T20:34:46.938Z,17.10
2023-04-04T20:37:19.926Z,16.13
2023-04-04T20:39:47.036Z,16.00
2023-04-04T20:42:26.269Z,18.83
2023-04-04T20:44:54.771Z,19.92
2023-04-04T20:47:40.983Z,18.95
2023-04-04T20:50:17.114Z,16.92
2023-04-04T20:52:56.272Z,18.38
2023-04-04T20:55:25.698Z,16.33
2023-04-04T20:57:54.488Z,15.48
2023-04-04T21:00:36.515Z,19.67
2023-04-04T21:03:09.159Z,29.20
2023-04-04T21:05:38.937Z,32.35
2023-04-04T21:08:37.829Z,33.17
2023-04-04T21:11:07.025Z,31.55
2023-04-04T21:13:36.881Z,36.22
2023-04-04T21:16:14.146Z,32.38
2023-04-04T21:18:44.175Z,34.10
2023-04-04T21:21:11.285Z,37.63
2023-04-04T21:23:52.801Z,39.63
2023-04-04T21:26:33.006Z,37.22
2023-04-04T21:29:05.437Z,40.35
2023-04-04T21:31:38.017Z,29.38
2023-04-04T21:34:11.219Z,39.53
2023-04-04T21:36:38.819Z,40.38
2023-04-04T21:39:15.026Z,34.67
2023-04-04T21:41:45.184Z,35.00
2023-04-04T21:44:12.637Z,33.70
2023-04-04T21:46:41.632Z,38.17
2023-04-04T21:49:10.935Z,36.22
2023-04-04T21:51:39.043Z,41.05
2023-04-04T21:54:06.790Z,32.22
2023-04-04T21:56:34.087Z,29.35
2023-04-04T21:59:04.737Z,26.65
2023-04-04T22:01:32.328Z,28.67
2023-04-04T22:04:00.707Z,29.17
2023-04-04T22:06:31.696Z,35.65
2023-04-04T22:09:02.614Z,30.40
2023-04-04T22:11:30.683Z,32.65
2023-04-04T22:14:05.036Z,27.92
2023-04-04T22:16:40.557Z,31.92
2023-04-04T22:19:12.343Z,28.27
2023-04-04T22:21:48.631Z,30.67
2023-04-04T22:24:20.052Z,30.40
2023-04-04T22:26:52.445Z,23.33
2023-04-04T22:29:23.493Z,19.63
2023-04-04T22:31:54.528Z,25.40
2023-04-04T22:34:25.507Z,31.77
2023-04-04T22:36:56.424Z,26.45
2023-04-04T22:39:27.100Z,28.17
2023-04-04T22:41:57.839Z,33.45
2023-04-04T22:44:29.507Z,27.38
2023-04-04T22:47:00.233Z,32.75
2023-04-04T22:49:31.161Z,33.95
2023-04-04T22:52:02.065Z,23.77
2023-04-04T22:54:33.122Z,24.63
2023-04-04T22:57:03.783Z,27.83
2023-04-04T22:59:34.906Z,25.95
2023-04-04T23:02:05.152Z,26.13
2023-04-04T23:04:37.016Z,27.30
2023-04-04T23:07:08.203Z,25.02
2023-04-04T23:09:38.660Z,25.60
2023-04-04T23:12:09.802Z,22.98
2023-04-04T23:14:40.693Z,19.30
2023-04-04T23:17:11.274Z,19.23
2023-04-04T23:19:42.527Z,19.20
2023-04-04T23:22:13.181Z,20.85
2023-04-04T23:24:43.696Z,20.60
2023-04-04T23:27:14.701Z,19.10
2023-04-04T23:29:49.347Z,17.63
2023-04-04T23:32:20.384Z,16.95
2023-04-04T23:34:51.897Z,17.63
2023-04-04T23:37:24.078Z,18.23
2023-04-04T23:39:51.609Z,17.13
2023-04-04T23:42:20.261Z,17.65
2023-04-04T23:44:47.415Z,17.00
2023-04-04T23:47:14.769Z,16.40
2023-04-04T23:49:41.834Z,18.52
2023-04-04T23:52:09.055Z,14.30
2023-04-04T23:54:36.154Z,17.50
2023-04-04T23:57:03.300Z,15.75
2023-04-04T23:59:30.378Z,20.10
